sensor_id;sensor_type;location;lat;lon;timestamp;P1;durP1;ratioP1;P2;durP2;ratioP2
34978;SDS011;21185;50.978;13.720;2023-09-30T00:04:25;21.95;;;4.47;;
34978;SDS011;21185;50.978;13.720;2023-09-30T00:09:29;21.70;;;5.80;;
34978;SDS011;21185;50.978;13.720;2023-09-30T00:14:31;17.33;;;4.93;;
34978;SDS011;21185;50.978;13.720;2023-09-30T00:19:33;17.90;;;4.47;;
34978;SDS011;21185;50.978;13.720;2023-09-30T00:24:36;13.68;;;3.90;;
34978;SDS011;21185;50.978;13.720;2023-09-30T00:29:38;8.40;;;3.30;;
34978;SDS011;21185;50.978;13.720;2023-09-30T00:34:40;11.25;;;3.88;;
34978;SDS011;21185;50.978;13.720;2023-09-30T00:39:42;11.73;;;3.25;;
34978;SDS011;21185;50.978;13.720;2023-09-30T00:44:44;5.07;;;1.75;;
34978;SDS011;21185;50.978;13.720;2023-09-30T00:49:46;6.07;;;2.28;;
34978;SDS011;21185;50.978;13.720;2023-09-30T00:54:48;6.93;;;1.73;;
34978;SDS011;21185;50.978;13.720;2023-09-30T00:59:51;3.10;;;1.20;;
34978;SDS011;21185;50.978;13.720;2023-09-30T01:04:55;3.20;;;1.20;;
34978;SDS011;21185;50.978;13.720;2023-09-30T01:09:57;2.85;;;1.10;;
34978;SDS011;21185;50.978;13.720;2023-09-30T01:14:59;1.77;;;0.80;;
34978;SDS011;21185;50.978;13.720;2023-09-30T01:20:01;3.10;;;0.70;;
34978;SDS011;21185;50.978;13.720;2023-09-30T01:25:08;2.20;;;0.70;;
34978;SDS011;21185;50.978;13.720;2023-09-30T01:30:11;2.00;;;0.57;;
34978;SDS011;21185;50.978;13.720;2023-09-30T01:35:15;2.40;;;0.68;;
34978;SDS011;21185;50.978;13.720;2023-09-30T01:40:17;1.70;;;0.60;;
34978;SDS011;21185;50.978;13.720;2023-09-30T01:45:19;1.15;;;0.50;;
34978;SDS011;21185;50.978;13.720;2023-09-30T01:50:21;0.98;;;0.50;;
34978;SDS011;21185;50.978;13.720;2023-09-30T01:55:23;3.83;;;0.68;;
34978;SDS011;21185;50.978;13.720;2023-09-30T02:00:25;3.58;;;0.60;;
34978;SDS011;21185;50.978;13.720;2023-09-30T02:05:30;3.70;;;0.70;;
34978;SDS011;21185;50.978;13.720;2023-09-30T02:10:33;1.30;;;0.50;;
34978;SDS011;21185;50.978;13.720;2023-09-30T02:15:35;1.13;;;0.50;;
34978;SDS011;21185;50.978;13.720;2023-09-30T02:20:41;2.38;;;0.60;;
34978;SDS011;21185;50.978;13.720;2023-09-30T02:25:43;3.38;;;0.80;;
34978;SDS011;21185;50.978;13.720;2023-09-30T02:30:45;5.07;;;0.80;;
34978;SDS011;21185;50.978;13.720;2023-09-30T02:35:47;3.97;;;0.70;;
34978;SDS011;21185;50.978;13.720;2023-09-30T02:40:49;1.08;;;0.65;;
34978;SDS011;21185;50.978;13.720;2023-09-30T02:45:53;3.53;;;0.85;;
34978;SDS011;21185;50.978;13.720;2023-09-30T02:50:55;3.70;;;0.73;;
34978;SDS011;21185;50.978;13.720;2023-09-30T02:55:56;2.97;;;0.57;;
34978;SDS011;21185;50.978;13.720;2023-09-30T03:01:01;2.35;;;0.60;;
34978;SDS011;21185;50.978;13.720;2023-09-30T03:06:03;6.38;;;1.20;;
34978;SDS011;21185;50.978;13.720;2023-09-30T03:11:05;7.88;;;1.00;;
34978;SDS011;21185;50.978;13.720;2023-09-30T03:16:10;7.57;;;1.20;;
34978;SDS011;21185;50.978;13.720;2023-09-30T03:21:13;8.63;;;1.70;;
34978;SDS011;21185;50.978;13.720;2023-09-30T03:26:16;4.70;;;0.93;;
34978;SDS011;21185;50.978;13.720;2023-09-30T03:31:21;3.72;;;1.08;;
34978;SDS011;21185;50.978;13.720;2023-09-30T03:36:24;4.00;;;0.98;;
34978;SDS011;21185;50.978;13.720;2023-09-30T03:41:26;3.17;;;1.05;;
34978;SDS011;21185;50.978;13.720;2023-09-30T03:46:29;6.70;;;1.35;;
34978;SDS011;21185;50.978;13.720;2023-09-30T03:51:31;1.30;;;0.60;;
34978;SDS011;21185;50.978;13.720;2023-09-30T03:56:33;9.38;;;1.77;;
34978;SDS011;21185;50.978;13.720;2023-09-30T04:01:35;4.57;;;0.90;;
34978;SDS011;21185;50.978;13.720;2023-09-30T04:06:42;8.57;;;1.00;;
34978;SDS011;21185;50.978;13.720;2023-09-30T04:11:44;5.78;;;1.50;;
34978;SDS011;21185;50.978;13.720;2023-09-30T04:16:46;7.28;;;1.40;;
34978;SDS011;21185;50.978;13.720;2023-09-30T04:21:48;4.38;;;1.05;;
34978;SDS011;21185;50.978;13.720;2023-09-30T04:26:50;6.63;;;1.15;;
34978;SDS011;21185;50.978;13.720;2023-09-30T04:31:57;6.80;;;1.40;;
34978;SDS011;21185;50.978;13.720;2023-09-30T04:37:00;5.68;;;1.13;;
34978;SDS011;21185;50.978;13.720;2023-09-30T04:42:02;8.82;;;1.50;;
34978;SDS011;21185;50.978;13.720;2023-09-30T04:47:05;3.83;;;1.00;;
34978;SDS011;21185;50.978;13.720;2023-09-30T04:52:07;9.88;;;1.45;;
34978;SDS011;21185;50.978;13.720;2023-09-30T04:57:09;5.72;;;1.73;;
34978;SDS011;21185;50.978;13.720;2023-09-30T05:02:11;6.22;;;1.77;;
34978;SDS011;21185;50.978;13.720;2023-09-30T05:07:16;7.57;;;1.50;;
34978;SDS011;21185;50.978;13.720;2023-09-30T05:12:18;4.18;;;1.13;;
34978;SDS011;21185;50.978;13.720;2023-09-30T05:17:20;6.78;;;1.27;;
34978;SDS011;21185;50.978;13.720;2023-09-30T05:22:22;10.55;;;2.15;;
34978;SDS011;21185;50.978;13.720;2023-09-30T05:27:26;5.82;;;1.45;;
34978;SDS011;21185;50.978;13.720;2023-09-30T05:32:28;5.47;;;1.42;;
34978;SDS011;21185;50.978;13.720;2023-09-30T05:37:30;6.05;;;2.17;;
34978;SDS011;21185;50.978;13.720;2023-09-30T05:42:33;8.35;;;1.70;;
34978;SDS011;21185;50.978;13.720;2023-09-30T05:47:37;4.38;;;1.17;;
34978;SDS011;21185;50.978;13.720;2023-09-30T05:52:40;13.45;;;2.15;;
34978;SDS011;21185;50.978;13.720;2023-09-30T05:57:42;4.57;;;1.13;;
34978;SDS011;21185;50.978;13.720;2023-09-30T06:02:44;5.43;;;1.17;;
34978;SDS011;21185;50.978;13.720;2023-09-30T06:07:46;6.60;;;1.60;;
34978;SDS011;21185;50.978;13.720;2023-09-30T06:12:49;4.35;;;1.30;;
34978;SDS011;21185;50.978;13.720;2023-09-30T06:18:00;4.15;;;1.33;;
34978;SDS011;21185;50.978;13.720;2023-09-30T06:23:02;4.78;;;1.30;;
34978;SDS011;21185;50.978;13.720;2023-09-30T06:28:05;6.03;;;1.67;;
34978;SDS011;21185;50.978;13.720;2023-09-30T06:33:09;6.70;;;2.00;;
34978;SDS011;21185;50.978;13.720;2023-09-30T06:38:15;18.50;;;2.95;;
34978;SDS011;21185;50.978;13.720;2023-09-30T06:43:21;5.78;;;2.28;;
34978;SDS011;21185;50.978;13.720;2023-09-30T06:48:23;6.20;;;2.30;;
34978;SDS011;21185;50.978;13.720;2023-09-30T06:53:25;3.83;;;1.80;;
34978;SDS011;21185;50.978;13.720;2023-09-30T06:58:27;8.98;;;2.13;;
34978;SDS011;21185;50.978;13.720;2023-09-30T07:03:29;11.00;;;1.70;;
34978;SDS011;21185;50.978;13.720;2023-09-30T07:08:32;7.30;;;1.60;;
34978;SDS011;21185;50.978;13.720;2023-09-30T07:13:34;6.18;;;1.35;;
34978;SDS011;21185;50.978;13.720;2023-09-30T07:18:37;7.28;;;1.25;;
34978;SDS011;21185;50.978;13.720;2023-09-30T07:23:39;8.20;;;2.05;;
34978;SDS011;21185;50.978;13.720;2023-09-30T07:28:42;6.35;;;1.75;;
34978;SDS011;21185;50.978;13.720;2023-09-30T07:33:44;8.65;;;1.73;;
34978;SDS011;21185;50.978;13.720;2023-09-30T07:38:46;6.57;;;1.08;;
34978;SDS011;21185;50.978;13.720;2023-09-30T07:43:48;7.40;;;1.30;;
34978;SDS011;21185;50.978;13.720;2023-09-30T07:48:50;8.25;;;1.45;;
34978;SDS011;21185;50.978;13.720;2023-09-30T07:53:54;7.15;;;1.20;;
34978;SDS011;21185;50.978;13.720;2023-09-30T07:58:56;6.13;;;1.75;;
34978;SDS011;21185;50.978;13.720;2023-09-30T08:03:59;5.35;;;1.25;;
34978;SDS011;21185;50.978;13.720;2023-09-30T08:09:01;9.18;;;1.40;;
34978;SDS011;21185;50.978;13.720;2023-09-30T08:14:04;4.90;;;1.20;;
34978;SDS011;21185;50.978;13.720;2023-09-30T08:19:08;5.88;;;1.25;;
34978;SDS011;21185;50.978;13.720;2023-09-30T08:24:10;5.90;;;2.15;;
34978;SDS011;21185;50.978;13.720;2023-09-30T08:29:12;9.90;;;1.50;;
34978;SDS011;21185;50.978;13.720;2023-09-30T08:34:14;7.45;;;1.55;;
34978;SDS011;21185;50.978;13.720;2023-09-30T08:39:16;4.95;;;1.08;;
34978;SDS011;21185;50.978;13.720;2023-09-30T08:44:18;7.32;;;1.35;;
34978;SDS011;21185;50.978;13.720;2023-09-30T08:49:21;10.63;;;1.20;;
34978;SDS011;21185;50.978;13.720;2023-09-30T08:54:38;5.70;;;1.23;;
34978;SDS011;21185;50.978;13.720;2023-09-30T08:59:54;2.28;;;1.15;;
34978;SDS011;21185;50.978;13.720;2023-09-30T09:05:07;9.77;;;1.00;;
34978;SDS011;21185;50.978;13.720;2023-09-30T09:10:10;3.85;;;1.02;;
34978;SDS011;21185;50.978;13.720;2023-09-30T09:15:26;4.47;;;1.42;;
34978;SDS011;21185;50.978;13.720;2023-09-30T09:20:30;15.40;;;3.65;;
34978;SDS011;21185;50.978;13.720;2023-09-30T09:25:37;7.38;;;1.40;;
34978;SDS011;21185;50.978;13.720;2023-09-30T09:30:41;13.43;;;1.27;;
34978;SDS011;21185;50.978;13.720;2023-09-30T09:35:47;4.70;;;1.60;;
34978;SDS011;21185;50.978;13.720;2023-09-30T09:40:50;8.70;;;2.50;;
34978;SDS011;21185;50.978;13.720;2023-09-30T09:45:52;4.95;;;1.02;;
34978;SDS011;21185;50.978;13.720;2023-09-30T09:50:56;7.20;;;1.35;;
34978;SDS011;21185;50.978;13.720;2023-09-30T09:56:00;4.43;;;1.00;;
34978;SDS011;21185;50.978;13.720;2023-09-30T10:01:03;7.57;;;1.52;;
34978;SDS011;21185;50.978;13.720;2023-09-30T10:06:08;10.75;;;2.15;;
34978;SDS011;21185;50.978;13.720;2023-09-30T10:11:17;3.83;;;1.30;;
34978;SDS011;21185;50.978;13.720;2023-09-30T10:33:13;9.65;;;2.20;;
34978;SDS011;21185;50.978;13.720;2023-09-30T10:43:30;5.32;;;1.20;;
34978;SDS011;21185;50.978;13.720;2023-09-30T10:48:34;5.65;;;0.85;;
34978;SDS011;21185;50.978;13.720;2023-09-30T10:53:43;8.43;;;1.10;;
34978;SDS011;21185;50.978;13.720;2023-09-30T10:58:51;4.57;;;1.35;;
34978;SDS011;21185;50.978;13.720;2023-09-30T11:03:58;5.60;;;1.13;;
34978;SDS011;21185;50.978;13.720;2023-09-30T11:09:05;3.92;;;1.02;;
34978;SDS011;21185;50.978;13.720;2023-09-30T11:19:36;7.55;;;1.88;;
34978;SDS011;21185;50.978;13.720;2023-09-30T11:24:47;5.07;;;0.88;;
34978;SDS011;21185;50.978;13.720;2023-09-30T11:29:49;2.78;;;1.00;;
34978;SDS011;21185;50.978;13.720;2023-09-30T11:34:52;3.78;;;1.25;;
34978;SDS011;21185;50.978;13.720;2023-09-30T11:40:08;5.95;;;0.98;;
34978;SDS011;21185;50.978;13.720;2023-09-30T11:45:19;4.07;;;0.90;;
34978;SDS011;21185;50.978;13.720;2023-09-30T11:50:24;4.43;;;1.27;;
34978;SDS011;21185;50.978;13.720;2023-09-30T11:55:27;6.28;;;1.05;;
34978;SDS011;21185;50.978;13.720;2023-09-30T12:00:28;6.88;;;0.60;;
34978;SDS011;21185;50.978;13.720;2023-09-30T12:05:31;7.28;;;1.88;;
34978;SDS011;21185;50.978;13.720;2023-09-30T12:10:34;5.00;;;0.80;;
34978;SDS011;21185;50.978;13.720;2023-09-30T12:15:36;3.47;;;0.90;;
34978;SDS011;21185;50.978;13.720;2023-09-30T12:20:38;8.50;;;0.90;;
34978;SDS011;21185;50.978;13.720;2023-09-30T12:25:40;5.70;;;1.00;;
34978;SDS011;21185;50.978;13.720;2023-09-30T12:30:42;7.25;;;1.23;;
34978;SDS011;21185;50.978;13.720;2023-09-30T12:35:45;7.40;;;0.80;;
34978;SDS011;21185;50.978;13.720;2023-09-30T12:40:47;6.88;;;1.38;;
34978;SDS011;21185;50.978;13.720;2023-09-30T12:45:50;5.22;;;1.25;;
34978;SDS011;21185;50.978;13.720;2023-09-30T12:50:52;3.60;;;0.90;;
34978;SDS011;21185;50.978;13.720;2023-09-30T12:55:54;3.42;;;0.95;;
34978;SDS011;21185;50.978;13.720;2023-09-30T13:00:56;4.07;;;0.70;;
34978;SDS011;21185;50.978;13.720;2023-09-30T13:06:19;4.57;;;0.98;;
34978;SDS011;21185;50.978;13.720;2023-09-30T13:11:21;15.50;;;1.95;;
34978;SDS011;21185;50.978;13.720;2023-09-30T13:16:23;5.93;;;0.85;;
34978;SDS011;21185;50.978;13.720;2023-09-30T13:21:26;3.78;;;0.80;;
34978;SDS011;21185;50.978;13.720;2023-09-30T13:26:29;5.35;;;1.23;;
34978;SDS011;21185;50.978;13.720;2023-09-30T13:31:31;7.70;;;1.20;;
34978;SDS011;21185;50.978;13.720;2023-09-30T13:36:34;12.70;;;2.55;;
34978;SDS011;21185;50.978;13.720;2023-09-30T13:41:36;5.32;;;0.70;;
34978;SDS011;21185;50.978;13.720;2023-09-30T13:46:39;2.72;;;1.00;;
34978;SDS011;21185;50.978;13.720;2023-09-30T13:51:42;2.85;;;0.55;;
34978;SDS011;21185;50.978;13.720;2023-09-30T13:56:44;4.93;;;0.80;;
34978;SDS011;21185;50.978;13.720;2023-09-30T14:01:46;3.13;;;1.10;;
34978;SDS011;21185;50.978;13.720;2023-09-30T14:06:48;8.93;;;0.75;;
34978;SDS011;21185;50.978;13.720;2023-09-30T14:11:50;5.20;;;0.82;;
34978;SDS011;21185;50.978;13.720;2023-09-30T14:16:52;4.00;;;1.08;;
34978;SDS011;21185;50.978;13.720;2023-09-30T14:21:55;7.75;;;1.27;;
34978;SDS011;21185;50.978;13.720;2023-09-30T14:26:58;5.57;;;0.90;;
34978;SDS011;21185;50.978;13.720;2023-09-30T14:32:00;4.03;;;1.48;;
34978;SDS011;21185;50.978;13.720;2023-09-30T14:37:04;7.70;;;1.08;;
34978;SDS011;21185;50.978;13.720;2023-09-30T14:42:07;8.65;;;1.17;;
34978;SDS011;21185;50.978;13.720;2023-09-30T14:47:09;7.32;;;0.70;;
34978;SDS011;21185;50.978;13.720;2023-09-30T14:52:11;5.78;;;1.08;;
34978;SDS011;21185;50.978;13.720;2023-09-30T14:57:13;4.60;;;0.75;;
34978;SDS011;21185;50.978;13.720;2023-09-30T15:02:17;3.90;;;0.90;;
34978;SDS011;21185;50.978;13.720;2023-09-30T15:07:20;1.63;;;0.68;;
34978;SDS011;21185;50.978;13.720;2023-09-30T15:12:22;2.75;;;0.90;;
34978;SDS011;21185;50.978;13.720;2023-09-30T15:17:24;2.95;;;0.93;;
34978;SDS011;21185;50.978;13.720;2023-09-30T15:22:26;5.88;;;0.85;;
34978;SDS011;21185;50.978;13.720;2023-09-30T15:27:28;2.08;;;0.90;;
34978;SDS011;21185;50.978;13.720;2023-09-30T15:32:31;3.92;;;1.20;;
34978;SDS011;21185;50.978;13.720;2023-09-30T15:37:33;6.72;;;1.20;;
34978;SDS011;21185;50.978;13.720;2023-09-30T15:42:36;3.75;;;0.85;;
34978;SDS011;21185;50.978;13.720;2023-09-30T15:47:38;6.07;;;0.90;;
34978;SDS011;21185;50.978;13.720;2023-09-30T15:52:40;4.65;;;0.98;;
34978;SDS011;21185;50.978;13.720;2023-09-30T15:57:43;1.85;;;0.63;;
34978;SDS011;21185;50.978;13.720;2023-09-30T16:02:45;6.57;;;1.67;;
34978;SDS011;21185;50.978;13.720;2023-09-30T16:07:47;4.82;;;1.25;;
34978;SDS011;21185;50.978;13.720;2023-09-30T16:12:50;3.28;;;0.85;;
34978;SDS011;21185;50.978;13.720;2023-09-30T16:17:52;7.07;;;0.90;;
34978;SDS011;21185;50.978;13.720;2023-09-30T16:22:54;3.03;;;0.80;;
34978;SDS011;21185;50.978;13.720;2023-09-30T16:27:56;8.52;;;1.30;;
34978;SDS011;21185;50.978;13.720;2023-09-30T16:33:01;5.25;;;0.90;;
34978;SDS011;21185;50.978;13.720;2023-09-30T16:38:05;6.53;;;1.10;;
34978;SDS011;21185;50.978;13.720;2023-09-30T16:43:07;4.80;;;1.15;;
34978;SDS011;21185;50.978;13.720;2023-09-30T16:48:10;3.30;;;0.90;;
34978;SDS011;21185;50.978;13.720;2023-09-30T16:53:12;4.85;;;1.60;;
34978;SDS011;21185;50.978;13.720;2023-09-30T16:58:15;5.72;;;2.38;;
34978;SDS011;21185;50.978;13.720;2023-09-30T17:03:17;6.35;;;1.00;;
34978;SDS011;21185;50.978;13.720;2023-09-30T17:08:19;11.68;;;3.30;;
34978;SDS011;21185;50.978;13.720;2023-09-30T17:13:22;6.38;;;1.20;;
34978;SDS011;21185;50.978;13.720;2023-09-30T17:18:24;10.13;;;2.00;;
34978;SDS011;21185;50.978;13.720;2023-09-30T17:23:26;5.95;;;1.48;;
34978;SDS011;21185;50.978;13.720;2023-09-30T17:28:28;7.43;;;1.25;;
34978;SDS011;21185;50.978;13.720;2023-09-30T17:33:31;4.53;;;1.00;;
34978;SDS011;21185;50.978;13.720;2023-09-30T17:38:34;4.78;;;0.90;;
34978;SDS011;21185;50.978;13.720;2023-09-30T17:43:38;6.18;;;2.10;;
34978;SDS011;21185;50.978;13.720;2023-09-30T17:48:41;6.35;;;2.70;;
34978;SDS011;21185;50.978;13.720;2023-09-30T17:53:52;15.80;;;4.97;;
34978;SDS011;21185;50.978;13.720;2023-09-30T17:58:54;7.70;;;3.80;;
34978;SDS011;21185;50.978;13.720;2023-09-30T18:03:57;14.15;;;3.65;;
34978;SDS011;21185;50.978;13.720;2023-09-30T18:09:00;13.43;;;6.35;;
34978;SDS011;21185;50.978;13.720;2023-09-30T18:14:02;18.48;;;9.32;;
34978;SDS011;21185;50.978;13.720;2023-09-30T18:19:04;9.93;;;6.63;;
34978;SDS011;21185;50.978;13.720;2023-09-30T18:24:07;9.75;;;3.70;;
34978;SDS011;21185;50.978;13.720;2023-09-30T18:29:10;6.50;;;2.08;;
34978;SDS011;21185;50.978;13.720;2023-09-30T18:34:12;4.95;;;1.90;;
34978;SDS011;21185;50.978;13.720;2023-09-30T18:39:14;4.70;;;1.50;;
34978;SDS011;21185;50.978;13.720;2023-09-30T18:44:23;3.78;;;1.20;;
34978;SDS011;21185;50.978;13.720;2023-09-30T18:49:25;3.72;;;1.10;;
34978;SDS011;21185;50.978;13.720;2023-09-30T18:54:28;5.63;;;2.47;;
34978;SDS011;21185;50.978;13.720;2023-09-30T18:59:30;3.63;;;1.60;;
34978;SDS011;21185;50.978;13.720;2023-09-30T19:04:32;3.47;;;1.90;;
34978;SDS011;21185;50.978;13.720;2023-09-30T19:09:34;5.18;;;1.42;;
34978;SDS011;21185;50.978;13.720;2023-09-30T19:14:36;6.97;;;1.98;;
34978;SDS011;21185;50.978;13.720;2023-09-30T19:19:43;2.75;;;1.35;;
34978;SDS011;21185;50.978;13.720;2023-09-30T19:24:45;5.38;;;1.45;;
34978;SDS011;21185;50.978;13.720;2023-09-30T19:29:49;2.97;;;1.30;;
34978;SDS011;21185;50.978;13.720;2023-09-30T19:34:51;3.20;;;1.90;;
34978;SDS011;21185;50.978;13.720;2023-09-30T19:39:54;4.05;;;1.90;;
34978;SDS011;21185;50.978;13.720;2023-09-30T19:44:57;7.32;;;1.75;;
34978;SDS011;21185;50.978;13.720;2023-09-30T19:50:04;4.10;;;1.70;;
34978;SDS011;21185;50.978;13.720;2023-09-30T19:55:07;12.10;;;2.38;;
34978;SDS011;21185;50.978;13.720;2023-09-30T20:00:09;7.15;;;2.75;;
34978;SDS011;21185;50.978;13.720;2023-09-30T20:05:12;8.27;;;2.35;;
34978;SDS011;21185;50.978;13.720;2023-09-30T20:10:15;10.70;;;2.83;;
34978;SDS011;21185;50.978;13.720;2023-09-30T20:15:17;10.38;;;2.45;;
34978;SDS011;21185;50.978;13.720;2023-09-30T20:20:19;3.50;;;1.63;;
34978;SDS011;21185;50.978;13.720;2023-09-30T20:25:21;7.13;;;2.22;;
34978;SDS011;21185;50.978;13.720;2023-09-30T20:30:25;9.10;;;1.83;;
34978;SDS011;21185;50.978;13.720;2023-09-30T20:35:28;8.73;;;1.85;;
34978;SDS011;21185;50.978;13.720;2023-09-30T20:40:30;7.07;;;2.55;;
34978;SDS011;21185;50.978;13.720;2023-09-30T20:45:32;6.90;;;2.10;;
34978;SDS011;21185;50.978;13.720;2023-09-30T20:50:34;9.40;;;2.08;;
34978;SDS011;21185;50.978;13.720;2023-09-30T20:55:37;7.78;;;2.45;;
34978;SDS011;21185;50.978;13.720;2023-09-30T21:00:39;3.15;;;1.50;;
34978;SDS011;21185;50.978;13.720;2023-09-30T21:05:42;4.25;;;2.10;;
34978;SDS011;21185;50.978;13.720;2023-09-30T21:10:44;4.53;;;1.52;;
34978;SDS011;21185;50.978;13.720;2023-09-30T21:15:46;6.93;;;1.30;;
34978;SDS011;21185;50.978;13.720;2023-09-30T21:20:49;7.68;;;2.08;;
34978;SDS011;21185;50.978;13.720;2023-09-30T21:25:52;3.88;;;1.33;;
34978;SDS011;21185;50.978;13.720;2023-09-30T21:30:55;5.75;;;1.45;;
34978;SDS011;21185;50.978;13.720;2023-09-30T21:35:57;6.53;;;1.38;;
34978;SDS011;21185;50.978;13.720;2023-09-30T21:40:59;5.40;;;1.33;;
34978;SDS011;21185;50.978;13.720;2023-09-30T21:46:01;5.88;;;1.52;;
34978;SDS011;21185;50.978;13.720;2023-09-30T21:51:04;4.75;;;1.42;;
34978;SDS011;21185;50.978;13.720;2023-09-30T21:56:06;6.07;;;2.20;;
34978;SDS011;21185;50.978;13.720;2023-09-30T22:01:08;9.68;;;1.85;;
34978;SDS011;21185;50.978;13.720;2023-09-30T22:06:16;5.90;;;1.70;;
34978;SDS011;21185;50.978;13.720;2023-09-30T22:11:18;4.80;;;1.35;;
34978;SDS011;21185;50.978;13.720;2023-09-30T22:16:20;7.78;;;1.60;;
34978;SDS011;21185;50.978;13.720;2023-09-30T22:21:24;10.50;;;1.60;;
34978;SDS011;21185;50.978;13.720;2023-09-30T22:26:28;1.58;;;1.02;;
34978;SDS011;21185;50.978;13.720;2023-09-30T22:31:31;8.32;;;1.38;;
34978;SDS011;21185;50.978;13.720;2023-09-30T22:36:34;4.85;;;1.23;;
34978;SDS011;21185;50.978;13.720;2023-09-30T22:41:47;2.90;;;1.35;;
34978;SDS011;21185;50.978;13.720;2023-09-30T22:46:49;4.80;;;1.25;;
34978;SDS011;21185;50.978;13.720;2023-09-30T22:51:51;5.75;;;2.13;;
34978;SDS011;21185;50.978;13.720;2023-09-30T22:56:55;5.20;;;1.30;;
34978;SDS011;21185;50.978;13.720;2023-09-30T23:01:57;5.95;;;1.10;;
34978;SDS011;21185;50.978;13.720;2023-09-30T23:07:00;2.90;;;0.95;;
34978;SDS011;21185;50.978;13.720;2023-09-30T23:12:02;3.05;;;1.30;;
34978;SDS011;21185;50.978;13.720;2023-09-30T23:17:07;3.55;;;1.38;;
34978;SDS011;21185;50.978;13.720;2023-09-30T23:22:09;19.15;;;3.60;;
34978;SDS011;21185;50.978;13.720;2023-09-30T23:27:12;7.80;;;1.25;;
34978;SDS011;21185;50.978;13.720;2023-09-30T23:32:18;2.13;;;0.88;;
34978;SDS011;21185;50.978;13.720;2023-09-30T23:37:21;3.20;;;1.30;;
34978;SDS011;21185;50.978;13.720;2023-09-30T23:42:23;4.00;;;0.90;;
34978;SDS011;21185;50.978;13.720;2023-09-30T23:47:25;3.33;;;1.30;;
34978;SDS011;21185;50.978;13.720;2023-09-30T23:52:48;2.80;;;0.88;;
34978;SDS011;21185;50.978;13.720;2023-09-30T23:57:52;2.97;;;1.02;;
